sensor_id;sensor_type;location;lat;lon;timestamp;pressure;altitude;pressure_sealevel;temperature;humidity
6514;BME280;3290;47.716;9.070;2023-11-22T00:00:58;97118.88;;;9.97;100.00
6514;BME280;3290;47.716;9.070;2023-11-22T00:03:23;97119.50;;;9.80;100.00
6514;BME280;3290;47.716;9.070;2023-11-22T00:05:51;97127.00;;;9.44;100.00
6514;BME280;3290;47.716;9.070;2023-11-22T00:08:16;97122.38;;;9.46;100.00
6514;BME280;3290;47.716;9.070;2023-11-22T00:10:42;97119.56;;;9.54;100.00
6514;BME280;3290;47.716;9.070;2023-11-22T00:13:08;97129.81;;;9.49;100.00
6514;BME280;3290;47.716;9.070;2023-11-22T00:15:33;97122.16;;;9.41;100.00
6514;BME280;3290;47.716;9.070;2023-11-22T00:17:58;97129.44;;;9.14;100.00
6514;BME280;3290;47.716;9.070;2023-11-22T00:20:28;97127.41;;;9.28;100.00
6514;BME280;3290;47.716;9.070;2023-11-22T00:22:53;97125.19;;;9.38;100.00
6514;BME280;3290;47.716;9.070;2023-11-22T00:25:19;97126.00;;;9.32;100.00
6514;BME280;3290;47.716;9.070;2023-11-22T00:27:44;97118.75;;;9.47;100.00
6514;BME280;3290;47.716;9.070;2023-11-22T00:30:10;97132.63;;;9.48;100.00
6514;BME280;3290;47.716;9.070;2023-11-22T00:32:35;97124.56;;;9.43;100.00
6514;BME280;3290;47.716;9.070;2023-11-22T00:35:01;97122.16;;;9.54;100.00
6514;BME280;3290;47.716;9.070;2023-11-22T00:37:26;97126.19;;;9.63;100.00
6514;BME280;3290;47.716;9.070;2023-11-22T00:39:51;97132.84;;;9.59;100.00
6514;BME280;3290;47.716;9.070;2023-11-22T00:42:17;97126.56;;;9.60;100.00
6514;BME280;3290;47.716;9.070;2023-11-22T00:44:45;97122.53;;;9.64;100.00
6514;BME280;3290;47.716;9.070;2023-11-22T00:47:11;97132.63;;;9.41;100.00
6514;BME280;3290;47.716;9.070;2023-11-22T00:49:36;97122.38;;;9.46;100.00
6514;BME280;3290;47.716;9.070;2023-11-22T00:52:02;97125.81;;;9.40;100.00
6514;BME280;3290;47.716;9.070;2023-11-22T00:54:28;97133.84;;;9.32;100.00
6514;BME280;3290;47.716;9.070;2023-11-22T00:56:53;97130.81;;;9.35;100.00
6514;BME280;3290;47.716;9.070;2023-11-22T00:59:18;97138.06;;;9.33;100.00
6514;BME280;3290;47.716;9.070;2023-11-22T01:01:44;97135.03;;;9.30;100.00
6514;BME280;3290;47.716;9.070;2023-11-22T01:04:10;97142.50;;;9.46;100.00
6514;BME280;3290;47.716;9.070;2023-11-22T01:06:36;97142.66;;;9.57;100.00
6514;BME280;3290;47.716;9.070;2023-11-22T01:09:02;97147.31;;;9.61;100.00
6514;BME280;3290;47.716;9.070;2023-11-22T01:11:27;97152.72;;;9.60;100.00
6514;BME280;3290;47.716;9.070;2023-11-22T01:13:53;97151.53;;;9.50;100.00
6514;BME280;3290;47.716;9.070;2023-11-22T01:16:18;97148.31;;;9.54;100.00
6514;BME280;3290;47.716;9.070;2023-11-22T01:18:44;97157.56;;;9.63;100.00
6514;BME280;3290;47.716;9.070;2023-11-22T01:21:11;97160.78;;;9.71;100.00
6514;BME280;3290;47.716;9.070;2023-11-22T01:23:37;97153.94;;;9.77;100.00
6514;BME280;3290;47.716;9.070;2023-11-22T01:26:02;97153.31;;;9.88;100.00
6514;BME280;3290;47.716;9.070;2023-11-22T01:28:28;97153.72;;;9.85;100.00
6514;BME280;3290;47.716;9.070;2023-11-22T01:30:54;97152.91;;;9.91;100.00
6514;BME280;3290;47.716;9.070;2023-11-22T01:33:20;97144.66;;;10.00;100.00
6514;BME280;3290;47.716;9.070;2023-11-22T01:35:45;97150.69;;;10.00;100.00
6514;BME280;3290;47.716;9.070;2023-11-22T01:38:11;97148.25;;;10.05;100.00
6514;BME280;3290;47.716;9.070;2023-11-22T01:40:44;97155.31;;;10.11;100.00
6514;BME280;3290;47.716;9.070;2023-11-22T01:43:18;97159.97;;;9.97;100.00
6514;BME280;3290;47.716;9.070;2023-11-22T01:45:44;97151.53;;;9.95;100.00
6514;BME280;3290;47.716;9.070;2023-11-22T01:48:13;97152.31;;;9.82;100.00
6514;BME280;3290;47.716;9.070;2023-11-22T01:50:38;97155.97;;;9.75;100.00
6514;BME280;3290;47.716;9.070;2023-11-22T01:53:06;97151.31;;;9.64;100.00
6514;BME280;3290;47.716;9.070;2023-11-22T01:55:33;97158.97;;;9.72;100.00
6514;BME280;3290;47.716;9.070;2023-11-22T01:57:59;97154.56;;;9.53;100.00
6514;BME280;3290;47.716;9.070;2023-11-22T02:00:26;97159.19;;;9.57;100.00
6514;BME280;3290;47.716;9.070;2023-11-22T02:02:52;97164.41;;;9.64;100.00
6514;BME280;3290;47.716;9.070;2023-11-22T02:05:18;97156.94;;;9.74;100.00
6514;BME280;3290;47.716;9.070;2023-11-22T02:07:44;97163.38;;;9.78;100.00
6514;BME280;3290;47.716;9.070;2023-11-22T02:10:09;97168.00;;;9.76;100.00
6514;BME280;3290;47.716;9.070;2023-11-22T02:12:35;97168.84;;;9.70;100.00
6514;BME280;3290;47.716;9.070;2023-11-22T02:15:01;97159.56;;;9.74;100.00
6514;BME280;3290;47.716;9.070;2023-11-22T02:17:28;97160.38;;;9.68;100.00
6514;BME280;3290;47.716;9.070;2023-11-22T02:19:54;97168.00;;;9.89;100.00
6514;BME280;3290;47.716;9.070;2023-11-22T02:22:19;97168.84;;;9.70;100.00
6514;BME280;3290;47.716;9.070;2023-11-22T02:24:45;97162.19;;;9.80;100.00
6514;BME280;3290;47.716;9.070;2023-11-22T02:27:10;97165.00;;;9.79;100.00
6514;BME280;3290;47.716;9.070;2023-11-22T02:29:36;97177.69;;;9.82;100.00
6514;BME280;3290;47.716;9.070;2023-11-22T02:32:01;97170.84;;;9.87;100.00
6514;BME280;3290;47.716;9.070;2023-11-22T02:34:27;97181.28;;;9.74;100.00
6514;BME280;3290;47.716;9.070;2023-11-22T02:36:52;97181.50;;;9.73;100.00
6514;BME280;3290;47.716;9.070;2023-11-22T02:39:18;97186.53;;;9.42;100.00
6514;BME280;3290;47.716;9.070;2023-11-22T02:41:44;97185.34;;;9.51;100.00
6514;BME280;3290;47.716;9.070;2023-11-22T02:44:10;97200.63;;;9.48;100.00
6514;BME280;3290;47.716;9.070;2023-11-22T02:46:36;97192.38;;;9.44;100.00
6514;BME280;3290;47.716;9.070;2023-11-22T02:49:01;97194.81;;;9.52;100.00
6514;BME280;3290;47.716;9.070;2023-11-22T02:51:26;97186.16;;;9.64;100.00
6514;BME280;3290;47.716;9.070;2023-11-22T02:53:53;97187.56;;;9.54;100.00
6514;BME280;3290;47.716;9.070;2023-11-22T02:56:18;97188.56;;;9.59;100.00
6514;BME280;3290;47.716;9.070;2023-11-22T02:58:44;97186.13;;;9.58;100.00
6514;BME280;3290;47.716;9.070;2023-11-22T03:01:09;97192.56;;;9.62;100.00
6514;BME280;3290;47.716;9.070;2023-11-22T03:03:35;97187.94;;;9.70;100.00
6514;BME280;3290;47.716;9.070;2023-11-22T03:06:01;97183.53;;;9.58;100.00
6514;BME280;3290;47.716;9.070;2023-11-22T03:08:26;97197.00;;;9.55;100.00
6514;BME280;3290;47.716;9.070;2023-11-22T03:10:52;97189.75;;;9.63;100.00
6514;BME280;3290;47.716;9.070;2023-11-22T03:13:18;97187.53;;;9.67;100.00
6514;BME280;3290;47.716;9.070;2023-11-22T03:15:44;97191.78;;;9.68;100.00
6514;BME280;3290;47.716;9.070;2023-11-22T03:18:09;97188.56;;;9.66;100.00
6514;BME280;3290;47.716;9.070;2023-11-22T03:20:36;97197.19;;;9.60;100.00
6514;BME280;3290;47.716;9.070;2023-11-22T03:23:02;97196.41;;;9.66;100.00
6514;BME280;3290;47.716;9.070;2023-11-22T03:25:28;97196.59;;;9.84;100.00
6514;BME280;3290;47.716;9.070;2023-11-22T03:27:54;97201.03;;;9.70;100.00
6514;BME280;3290;47.716;9.070;2023-11-22T03:30:19;97211.06;;;9.60;100.00
6514;BME280;3290;47.716;9.070;2023-11-22T03:32:45;97203.84;;;9.69;100.00
6514;BME280;3290;47.716;9.070;2023-11-22T03:35:10;97208.06;;;9.63;100.00
6514;BME280;3290;47.716;9.070;2023-11-22T03:37:36;97208.47;;;9.60;100.00
6514;BME280;3290;47.716;9.070;2023-11-22T03:40:01;97205.47;;;9.70;100.00
6514;BME280;3290;47.716;9.070;2023-11-22T03:42:27;97221.97;;;9.57;100.00
6514;BME280;3290;47.716;9.070;2023-11-22T03:44:53;97224.75;;;9.69;100.00
6514;BME280;3290;47.716;9.070;2023-11-22T03:47:18;97225.97;;;9.73;100.00
6514;BME280;3290;47.716;9.070;2023-11-22T03:49:44;97222.38;;;9.61;100.00
6514;BME280;3290;47.716;9.070;2023-11-22T03:52:12;97222.97;;;9.50;100.00
6514;BME280;3290;47.716;9.070;2023-11-22T03:54:39;97222.94;;;9.24;100.00
6514;BME280;3290;47.716;9.070;2023-11-22T03:57:05;97222.94;;;9.44;100.00
6514;BME280;3290;47.716;9.070;2023-11-22T03:59:30;97232.41;;;9.38;100.00
6514;BME280;3290;47.716;9.070;2023-11-22T04:01:55;97234.22;;;9.57;100.00
6514;BME280;3290;47.716;9.070;2023-11-22T04:04:22;97236.22;;;9.55;100.00
6514;BME280;3290;47.716;9.070;2023-11-22T04:06:48;97236.03;;;9.50;100.00
6514;BME280;3290;47.716;9.070;2023-11-22T04:09:14;97242.06;;;9.51;100.00
6514;BME280;3290;47.716;9.070;2023-11-22T04:11:39;97246.50;;;9.50;100.00
6514;BME280;3290;47.716;9.070;2023-11-22T04:14:05;97246.69;;;9.55;100.00
6514;BME280;3290;47.716;9.070;2023-11-22T04:16:31;97249.72;;;9.52;100.00
6514;BME280;3290;47.716;9.070;2023-11-22T04:18:56;97250.94;;;9.62;100.00
6514;BME280;3290;47.716;9.070;2023-11-22T04:21:22;97256.09;;;9.30;100.00
6514;BME280;3290;47.716;9.070;2023-11-22T04:23:47;97252.88;;;9.28;100.00
6514;BME280;3290;47.716;9.070;2023-11-22T04:26:16;97258.94;;;9.35;100.00
6514;BME280;3290;47.716;9.070;2023-11-22T04:28:41;97252.94;;;9.54;100.00
6514;BME280;3290;47.716;9.070;2023-11-22T04:31:07;97252.94;;;9.60;100.00
6514;BME280;3290;47.716;9.070;2023-11-22T04:33:34;97262.59;;;9.66;100.00
6514;BME280;3290;47.716;9.070;2023-11-22T04:35:59;97263.56;;;9.46;100.00
6514;BME280;3290;47.716;9.070;2023-11-22T04:38:26;97270.03;;;9.63;100.00
6514;BME280;3290;47.716;9.070;2023-11-22T04:40:51;97273.25;;;9.65;100.00
6514;BME280;3290;47.716;9.070;2023-11-22T04:43:17;97280.31;;;9.58;100.00
6514;BME280;3290;47.716;9.070;2023-11-22T04:45:42;97279.91;;;9.61;100.00
6514;BME280;3290;47.716;9.070;2023-11-22T04:48:08;97283.34;;;9.68;100.00
6514;BME280;3290;47.716;9.070;2023-11-22T04:50:34;97282.75;;;9.79;100.00
6514;BME280;3290;47.716;9.070;2023-11-22T04:53:00;97288.38;;;9.76;100.00
6514;BME280;3290;47.716;9.070;2023-11-22T04:55:26;97287.16;;;9.72;100.00
6514;BME280;3290;47.716;9.070;2023-11-22T04:57:53;97287.94;;;9.53;100.00
6514;BME280;3290;47.716;9.070;2023-11-22T05:00:19;97290.38;;;9.61;100.00
6514;BME280;3290;47.716;9.070;2023-11-22T05:02:44;97293.19;;;9.66;100.00
6514;BME280;3290;47.716;9.070;2023-11-22T05:05:10;97296.63;;;9.66;100.00
6514;BME280;3290;47.716;9.070;2023-11-22T05:07:36;97298.63;;;9.71;100.00
6514;BME280;3290;47.716;9.070;2023-11-22T05:10:01;97306.66;;;9.50;100.00
6514;BME280;3290;47.716;9.070;2023-11-22T05:12:28;97309.88;;;9.58;100.00
6514;BME280;3290;47.716;9.070;2023-11-22T05:14:53;97319.38;;;9.66;100.00
6514;BME280;3290;47.716;9.070;2023-11-22T05:17:19;97313.88;;;9.55;100.00
6514;BME280;3290;47.716;9.070;2023-11-22T05:19:45;97322.13;;;9.45;100.00
6514;BME280;3290;47.716;9.070;2023-11-22T05:22:10;97328.94;;;9.46;100.00
6514;BME280;3290;47.716;9.070;2023-11-22T05:24:36;97340.63;;;9.44;100.00
6514;BME280;3290;47.716;9.070;2023-11-22T05:27:04;97335.97;;;9.39;100.00
6514;BME280;3290;47.716;9.070;2023-11-22T05:29:29;97341.66;;;9.49;100.00
6514;BME280;3290;47.716;9.070;2023-11-22T05:31:54;97344.63;;;9.46;100.00
6514;BME280;3290;47.716;9.070;2023-11-22T05:34:20;97346.47;;;9.46;100.00
6514;BME280;3290;47.716;9.070;2023-11-22T05:36:46;97350.06;;;9.38;100.00
6514;BME280;3290;47.716;9.070;2023-11-22T05:39:11;97366.22;;;9.61;100.00
6514;BME280;3290;47.716;9.070;2023-11-22T05:41:37;97361.72;;;9.42;100.00
6514;BME280;3290;47.716;9.070;2023-11-22T05:44:03;97364.94;;;9.38;100.00
6514;BME280;3290;47.716;9.070;2023-11-22T05:46:28;97360.56;;;9.51;100.00
6514;BME280;3290;47.716;9.070;2023-11-22T05:48:54;97352.25;;;9.35;100.00
6514;BME280;3290;47.716;9.070;2023-11-22T05:51:20;97357.47;;;9.28;100.00
6514;BME280;3290;47.716;9.070;2023-11-22T05:53:46;97362.53;;;9.36;100.00
6514;BME280;3290;47.716;9.070;2023-11-22T05:56:11;97369.97;;;9.39;100.00
6514;BME280;3290;47.716;9.070;2023-11-22T05:58:37;97368.84;;;9.15;100.00
6514;BME280;3290;47.716;9.070;2023-11-22T06:01:09;97371.06;;;9.11;100.00
6514;BME280;3290;47.716;9.070;2023-11-22T06:03:36;97383.78;;;9.20;100.00
6514;BME280;3290;47.716;9.070;2023-11-22T06:06:02;97381.50;;;9.05;100.00
6514;BME280;3290;47.716;9.070;2023-11-22T06:08:30;97380.13;;;9.15;100.00
6514;BME280;3290;47.716;9.070;2023-11-22T06:10:58;97379.50;;;9.07;100.00
6514;BME280;3290;47.716;9.070;2023-11-22T06:13:25;97379.41;;;8.94;100.00
6514;BME280;3290;47.716;9.070;2023-11-22T06:15:51;97385.84;;;8.91;100.00
6514;BME280;3290;47.716;9.070;2023-11-22T06:18:16;97380.56;;;8.85;100.00
6514;BME280;3290;47.716;9.070;2023-11-22T06:20:42;97393.38;;;8.26;100.00
6514;BME280;3290;47.716;9.070;2023-11-22T06:23:08;97399.09;;;8.36;100.00
6514;BME280;3290;47.716;9.070;2023-11-22T06:25:34;97395.13;;;8.39;100.00
6514;BME280;3290;47.716;9.070;2023-11-22T06:28:01;97394.81;;;8.49;100.00
6514;BME280;3290;47.716;9.070;2023-11-22T06:30:26;97409.03;;;8.46;100.00
6514;BME280;3290;47.716;9.070;2023-11-22T06:32:52;97416.91;;;8.53;100.00
6514;BME280;3290;47.716;9.070;2023-11-22T06:35:17;97416.13;;;8.52;100.00
6514;BME280;3290;47.716;9.070;2023-11-22T06:37:43;97424.72;;;8.74;100.00
6514;BME280;3290;47.716;9.070;2023-11-22T06:40:10;97432.50;;;8.67;100.00
6514;BME280;3290;47.716;9.070;2023-11-22T06:42:38;97432.41;;;8.34;100.00
6514;BME280;3290;47.716;9.070;2023-11-22T06:45:05;97436.47;;;8.63;100.00
6514;BME280;3290;47.716;9.070;2023-11-22T06:47:32;97438.84;;;8.58;100.00
6514;BME280;3290;47.716;9.070;2023-11-22T06:49:57;97442.88;;;8.34;100.00
6514;BME280;3290;47.716;9.070;2023-11-22T06:52:23;97445.47;;;8.13;100.00
6514;BME280;3290;47.716;9.070;2023-11-22T06:54:49;97454.78;;;8.22;100.00
6514;BME280;3290;47.716;9.070;2023-11-22T06:57:14;97467.97;;;8.35;100.00
6514;BME280;3290;47.716;9.070;2023-11-22T06:59:39;97477.06;;;8.38;100.00
6514;BME280;3290;47.716;9.070;2023-11-22T07:02:05;97475.56;;;8.30;100.00
6514;BME280;3290;47.716;9.070;2023-11-22T07:04:32;97467.16;;;8.34;100.00
6514;BME280;3290;47.716;9.070;2023-11-22T07:06:58;97474.81;;;8.36;100.00
6514;BME280;3290;47.716;9.070;2023-11-22T07:09:23;97485.00;;;8.31;100.00
6514;BME280;3290;47.716;9.070;2023-11-22T07:11:48;97484.00;;;8.11;100.00
6514;BME280;3290;47.716;9.070;2023-11-22T07:14:14;97484.88;;;8.18;100.00
6514;BME280;3290;47.716;9.070;2023-11-22T07:16:41;97490.56;;;7.93;100.00
6514;BME280;3290;47.716;9.070;2023-11-22T07:19:07;97485.94;;;7.88;100.00
6514;BME280;3290;47.716;9.070;2023-11-22T07:21:32;97507.44;;;7.76;100.00
6514;BME280;3290;47.716;9.070;2023-11-22T07:23:58;97518.28;;;7.30;100.00
6514;BME280;3290;47.716;9.070;2023-11-22T07:26:25;97514.56;;;7.67;100.00
6514;BME280;3290;47.716;9.070;2023-11-22T07:28:52;97524.09;;;7.60;100.00
6514;BME280;3290;47.716;9.070;2023-11-22T07:31:17;97527.25;;;7.42;100.00
6514;BME280;3290;47.716;9.070;2023-11-22T07:33:44;97527.69;;;7.31;100.00
6514;BME280;3290;47.716;9.070;2023-11-22T07:36:10;97532.22;;;7.37;100.00
6514;BME280;3290;47.716;9.070;2023-11-22T07:38:35;97532.88;;;6.88;100.00
6514;BME280;3290;47.716;9.070;2023-11-22T07:41:00;97548.81;;;7.21;100.00
6514;BME280;3290;47.716;9.070;2023-11-22T07:43:26;97540.06;;;6.86;100.00
6514;BME280;3290;47.716;9.070;2023-11-22T07:45:51;97548.97;;;6.69;100.00
6514;BME280;3290;47.716;9.070;2023-11-22T07:48:17;97547.50;;;6.89;100.00
6514;BME280;3290;47.716;9.070;2023-11-22T07:50:43;97548.56;;;6.94;100.00
6514;BME280;3290;47.716;9.070;2023-11-22T07:53:12;97554.81;;;6.71;100.00
6514;BME280;3290;47.716;9.070;2023-11-22T07:55:38;97559.31;;;7.14;100.00
6514;BME280;3290;47.716;9.070;2023-11-22T07:58:03;97559.13;;;6.78;100.00
6514;BME280;3290;47.716;9.070;2023-11-22T08:00:32;97573.84;;;6.72;100.00
6514;BME280;3290;47.716;9.070;2023-11-22T08:02:59;97577.84;;;6.96;100.00
6514;BME280;3290;47.716;9.070;2023-11-22T08:05:26;97581.09;;;6.62;100.00
6514;BME280;3290;47.716;9.070;2023-11-22T08:07:53;97573.50;;;6.75;100.00
6514;BME280;3290;47.716;9.070;2023-11-22T08:10:18;97579.13;;;6.64;100.00
6514;BME280;3290;47.716;9.070;2023-11-22T08:12:47;97585.88;;;6.73;100.00
6514;BME280;3290;47.716;9.070;2023-11-22T08:15:16;97591.38;;;6.78;100.00
6514;BME280;3290;47.716;9.070;2023-11-22T08:17:43;97584.31;;;6.64;100.00
6514;BME280;3290;47.716;9.070;2023-11-22T08:20:08;97589.94;;;6.53;100.00
6514;BME280;3290;47.716;9.070;2023-11-22T08:22:39;97603.06;;;6.81;99.36
6514;BME280;3290;47.716;9.070;2023-11-22T08:25:06;97599.81;;;6.79;100.00
6514;BME280;3290;47.716;9.070;2023-11-22T08:27:33;97603.00;;;6.67;100.00
6514;BME280;3290;47.716;9.070;2023-11-22T08:29:59;97605.66;;;6.81;98.95
6514;BME280;3290;47.716;9.070;2023-11-22T08:32:30;97606.72;;;6.95;98.38
6514;BME280;3290;47.716;9.070;2023-11-22T08:34:56;97613.06;;;6.92;99.11
6514;BME280;3290;47.716;9.070;2023-11-22T08:37:22;97620.88;;;6.92;99.33
6514;BME280;3290;47.716;9.070;2023-11-22T08:39:47;97618.34;;;6.84;99.64
6514;BME280;3290;47.716;9.070;2023-11-22T08:42:12;97634.00;;;6.77;100.00
6514;BME280;3290;47.716;9.070;2023-11-22T08:44:39;97639.00;;;6.64;99.22
6514;BME280;3290;47.716;9.070;2023-11-22T08:47:04;97645.59;;;6.74;99.90
6514;BME280;3290;47.716;9.070;2023-11-22T08:49:30;97654.50;;;6.79;99.94
6514;BME280;3290;47.716;9.070;2023-11-22T08:51:58;97661.09;;;7.12;99.45
6514;BME280;3290;47.716;9.070;2023-11-22T08:54:25;97659.50;;;7.25;97.97
6514;BME280;3290;47.716;9.070;2023-11-22T08:56:54;97665.91;;;7.23;98.57
6514;BME280;3290;47.716;9.070;2023-11-22T08:59:21;97661.44;;;7.09;97.87
6514;BME280;3290;47.716;9.070;2023-11-22T09:01:47;97672.03;;;7.30;97.10
6514;BME280;3290;47.716;9.070;2023-11-22T09:04:12;97674.94;;;7.13;97.96
6514;BME280;3290;47.716;9.070;2023-11-22T09:06:38;97676.03;;;7.18;98.51
6514;BME280;3290;47.716;9.070;2023-11-22T09:09:04;97686.84;;;7.29;97.70
6514;BME280;3290;47.716;9.070;2023-11-22T09:11:30;97690.03;;;7.17;98.48
6514;BME280;3290;47.716;9.070;2023-11-22T09:13:56;97688.84;;;7.42;98.61
6514;BME280;3290;47.716;9.070;2023-11-22T09:16:22;97703.81;;;7.48;100.00
6514;BME280;3290;47.716;9.070;2023-11-22T09:18:50;97701.78;;;7.13;97.74
6514;BME280;3290;47.716;9.070;2023-11-22T09:21:16;97697.78;;;6.80;97.15
6514;BME280;3290;47.716;9.070;2023-11-22T09:23:42;97701.09;;;6.97;96.92
6514;BME280;3290;47.716;9.070;2023-11-22T09:26:08;97705.31;;;7.20;96.74
6514;BME280;3290;47.716;9.070;2023-11-22T09:28:33;97701.00;;;7.13;94.51
6514;BME280;3290;47.716;9.070;2023-11-22T09:30:59;97693.50;;;7.32;93.50
6514;BME280;3290;47.716;9.070;2023-11-22T09:33:31;97698.72;;;7.32;94.56
6514;BME280;3290;47.716;9.070;2023-11-22T09:35:57;97696.31;;;7.45;94.53
6514;BME280;3290;47.716;9.070;2023-11-22T09:38:23;97691.19;;;7.37;96.01
6514;BME280;3290;47.716;9.070;2023-11-22T09:40:49;97698.19;;;7.73;93.06
6514;BME280;3290;47.716;9.070;2023-11-22T09:43:16;97698.97;;;7.73;91.74
6514;BME280;3290;47.716;9.070;2023-11-22T09:45:44;97696.94;;;7.83;90.90
6514;BME280;3290;47.716;9.070;2023-11-22T09:48:17;97701.69;;;7.65;93.24
6514;BME280;3290;47.716;9.070;2023-11-22T09:51:04;97700.09;;;7.42;89.77
6514;BME280;3290;47.716;9.070;2023-11-22T09:53:36;97691.56;;;7.48;92.10
6514;BME280;3290;47.716;9.070;2023-11-22T09:56:07;97691.88;;;7.31;90.61
6514;BME280;3290;47.716;9.070;2023-11-22T09:58:34;97686.25;;;7.05;90.61
6514;BME280;3290;47.716;9.070;2023-11-22T10:01:00;97679.13;;;7.36;90.37
6514;BME280;3290;47.716;9.070;2023-11-22T10:03:27;97679.00;;;7.52;88.08
6514;BME280;3290;47.716;9.070;2023-11-22T10:05:55;97689.75;;;7.49;88.96
6514;BME280;3290;47.716;9.070;2023-11-22T10:08:21;97695.56;;;7.58;90.10
6514;BME280;3290;47.716;9.070;2023-11-22T10:10:49;97685.13;;;7.58;88.00
6514;BME280;3290;47.716;9.070;2023-11-22T10:13:16;97698.28;;;7.79;89.25
6514;BME280;3290;47.716;9.070;2023-11-22T10:15:45;97696.31;;;7.81;88.17
6514;BME280;3290;47.716;9.070;2023-11-22T10:18:11;97695.41;;;7.74;86.34
6514;BME280;3290;47.716;9.070;2023-11-22T10:20:38;97698.91;;;7.81;86.77
6514;BME280;3290;47.716;9.070;2023-11-22T10:23:11;97710.53;;;7.93;86.28
6514;BME280;3290;47.716;9.070;2023-11-22T10:25:43;97703.38;;;7.58;86.60
6514;BME280;3290;47.716;9.070;2023-11-22T10:28:09;97717.78;;;7.69;86.54
6514;BME280;3290;47.716;9.070;2023-11-22T10:30:35;97716.13;;;7.54;88.29
6514;BME280;3290;47.716;9.070;2023-11-22T10:33:02;97714.47;;;7.89;87.53
6514;BME280;3290;47.716;9.070;2023-11-22T10:35:27;97711.16;;;7.95;87.59
6514;BME280;3290;47.716;9.070;2023-11-22T10:37:53;97714.88;;;7.64;86.10
6514;BME280;3290;47.716;9.070;2023-11-22T10:40:18;97699.56;;;7.47;86.09
6514;BME280;3290;47.716;9.070;2023-11-22T10:42:48;97705.00;;;7.59;87.20
6514;BME280;3290;47.716;9.070;2023-11-22T10:45:17;97709.00;;;7.48;86.21
6514;BME280;3290;47.716;9.070;2023-11-22T10:47:43;97711.47;;;7.63;86.03
6514;BME280;3290;47.716;9.070;2023-11-22T10:50:09;97707.72;;;7.80;85.55
6514;BME280;3290;47.716;9.070;2023-11-22T10:52:41;97703.16;;;7.82;84.74
6514;BME280;3290;47.716;9.070;2023-11-22T10:55:11;97708.94;;;7.56;86.62
6514;BME280;3290;47.716;9.070;2023-11-22T10:57:46;97713.44;;;7.47;86.67
6514;BME280;3290;47.716;9.070;2023-11-22T11:00:19;97715.97;;;7.33;85.13
6514;BME280;3290;47.716;9.070;2023-11-22T11:02:51;97726.97;;;7.43;86.03
6514;BME280;3290;47.716;9.070;2023-11-22T11:05:21;97733.56;;;7.31;86.09
6514;BME280;3290;47.716;9.070;2023-11-22T11:08:00;97723.41;;;7.21;85.41
6514;BME280;3290;47.716;9.070;2023-11-22T11:10:28;97720.44;;;7.24;86.45
6514;BME280;3290;47.716;9.070;2023-11-22T11:12:55;97718.88;;;7.38;85.94
6514;BME280;3290;47.716;9.070;2023-11-22T11:15:22;97726.34;;;7.18;86.71
6514;BME280;3290;47.716;9.070;2023-11-22T11:17:48;97726.84;;;7.36;85.79
6514;BME280;3290;47.716;9.070;2023-11-22T11:20:16;97727.50;;;7.16;85.92
6514;BME280;3290;47.716;9.070;2023-11-22T11:22:42;97732.94;;;7.29;86.70
6514;BME280;3290;47.716;9.070;2023-11-22T11:25:08;97732.00;;;7.22;86.92
6514;BME280;3290;47.716;9.070;2023-11-22T11:27:34;97736.75;;;7.18;87.42
6514;BME280;3290;47.716;9.070;2023-11-22T11:30:17;97744.22;;;6.99;86.08
6514;BME280;3290;47.716;9.070;2023-11-22T11:32:46;97748.75;;;7.27;86.66
6514;BME280;3290;47.716;9.070;2023-11-22T11:35:12;97753.38;;;6.95;86.18
6514;BME280;3290;47.716;9.070;2023-11-22T11:37:37;97757.06;;;7.45;85.91
6514;BME280;3290;47.716;9.070;2023-11-22T11:40:26;97760.56;;;6.85;87.04
6514;BME280;3290;47.716;9.070;2023-11-22T11:42:52;97753.97;;;7.05;86.81
6514;BME280;3290;47.716;9.070;2023-11-22T11:45:17;97755.88;;;7.33;86.29
6514;BME280;3290;47.716;9.070;2023-11-22T11:47:42;97755.34;;;7.60;85.71
6514;BME280;3290;47.716;9.070;2023-11-22T11:50:09;97756.09;;;7.24;85.29
6514;BME280;3290;47.716;9.070;2023-11-22T11:52:38;97753.66;;;7.67;90.00
6514;BME280;3290;47.716;9.070;2023-11-22T11:55:04;97755.44;;;7.30;85.05
6514;BME280;3290;47.716;9.070;2023-11-22T11:57:31;97745.50;;;7.25;85.64
6514;BME280;3290;47.716;9.070;2023-11-22T11:59:57;97744.38;;;7.28;86.42
6514;BME280;3290;47.716;9.070;2023-11-22T12:02:24;97745.72;;;7.60;82.94
6514;BME280;3290;47.716;9.070;2023-11-22T12:04:49;97743.16;;;7.16;85.12
6514;BME280;3290;47.716;9.070;2023-11-22T12:07:15;97732.19;;;7.43;85.25
6514;BME280;3290;47.716;9.070;2023-11-22T12:09:40;97722.81;;;7.34;83.73
6514;BME280;3290;47.716;9.070;2023-11-22T12:12:06;97724.16;;;7.30;83.96
6514;BME280;3290;47.716;9.070;2023-11-22T12:14:32;97729.06;;;7.25;83.01
6514;BME280;3290;47.716;9.070;2023-11-22T12:16:58;97726.16;;;7.20;83.14
6514;BME280;3290;47.716;9.070;2023-11-22T12:19:25;97727.56;;;6.86;84.71
6514;BME280;3290;47.716;9.070;2023-11-22T12:21:52;97731.59;;;6.88;84.52
6514;BME280;3290;47.716;9.070;2023-11-22T12:24:18;97730.06;;;6.72;85.31
6514;BME280;3290;47.716;9.070;2023-11-22T12:26:45;97731.16;;;7.07;84.79
6514;BME280;3290;47.716;9.070;2023-11-22T12:29:14;97735.78;;;6.97;84.86
6514;BME280;3290;47.716;9.070;2023-11-22T12:31:49;97732.25;;;7.13;83.87
6514;BME280;3290;47.716;9.070;2023-11-22T12:34:17;97742.78;;;6.67;86.24
6514;BME280;3290;47.716;9.070;2023-11-22T12:36:42;97748.25;;;6.79;85.61
6514;BME280;3290;47.716;9.070;2023-11-22T12:39:09;97762.53;;;6.83;85.89
6514;BME280;3290;47.716;9.070;2023-11-22T12:41:52;97783.94;;;7.01;85.87
6514;BME280;3290;47.716;9.070;2023-11-22T12:44:18;97775.94;;;6.73;86.27
6514;BME280;3290;47.716;9.070;2023-11-22T12:46:51;97770.34;;;6.83;85.84
6514;BME280;3290;47.716;9.070;2023-11-22T12:49:23;97777.53;;;6.81;85.10
6514;BME280;3290;47.716;9.070;2023-11-22T12:51:49;97777.16;;;6.54;85.51
6514;BME280;3290;47.716;9.070;2023-11-22T12:54:15;97784.09;;;6.70;85.39
6514;BME280;3290;47.716;9.070;2023-11-22T12:56:41;97781.72;;;6.90;85.09
6514;BME280;3290;47.716;9.070;2023-11-22T12:59:07;97781.38;;;6.93;85.26
6514;BME280;3290;47.716;9.070;2023-11-22T13:01:34;97778.53;;;7.11;86.37
6514;BME280;3290;47.716;9.070;2023-11-22T13:04:00;97791.47;;;7.18;85.97
6514;BME280;3290;47.716;9.070;2023-11-22T13:06:25;97794.66;;;7.51;87.48
6514;BME280;3290;47.716;9.070;2023-11-22T13:08:52;97802.16;;;7.54;87.66
6514;BME280;3290;47.716;9.070;2023-11-22T13:11:18;97811.19;;;7.43;84.87
6514;BME280;3290;47.716;9.070;2023-11-22T13:13:44;97817.50;;;7.26;84.06
6514;BME280;3290;47.716;9.070;2023-11-22T13:16:12;97808.38;;;7.00;84.90
6514;BME280;3290;47.716;9.070;2023-11-22T13:18:37;97808.69;;;7.05;85.81
6514;BME280;3290;47.716;9.070;2023-11-22T13:21:03;97806.19;;;6.74;85.66